QTR61M LTCG-LTBA
Flight info
| Callsign | QTR61M |
|---|---|
| Flight time | 1h 25m |
| Altitude | 40000 |
| Route | TEMEL UM11 CRM UW71 BAG UL614 TOKER |
| Aircraft | B77W/H-SDE1E2E3FGHIJ2J3J4J5M1RWXY/LB1D1 |
Departure
| Time | 2026-04-23 16:06 |
|---|---|
| Airport | Trabzon International Airport (LTCG) |
Arrival
| Time | 2026-04-23 17:31 |
|---|---|
| Airport | İstanbul Atatürk Airport (LTBA) |
| Time | Latitude | Longitude | Altitude | Speed | Heading |
|---|---|---|---|---|---|
| 2026-04-23 15:54 | 40.99400 | 39.78637 | 120 ft | 0 kts | 202° |
| 2026-04-23 16:00 | 40.99403 | 39.78639 | 115 ft | 2 kts | 201° |
| 2026-04-23 16:00 | 40.99419 | 39.78646 | 119 ft | 2 kts | 197° |
| 2026-04-23 16:00 | 40.99435 | 39.78652 | 115 ft | 2 kts | 188° |
| 2026-04-23 16:00 | 40.99451 | 39.78653 | 115 ft | 2 kts | 161° |
| 2026-04-23 16:01 | 40.99464 | 39.78640 | 115 ft | 2 kts | 117° |
| 2026-04-23 16:01 | 40.99467 | 39.78631 | 115 ft | 0 kts | 112° |
| 2026-04-23 16:02 | 40.99465 | 39.78638 | 116 ft | 6 kts | 112° |
| 2026-04-23 16:02 | 40.99442 | 39.78711 | 115 ft | 9 kts | 112° |
| 2026-04-23 16:03 | 40.99418 | 39.78789 | 118 ft | 9 kts | 112° |
| 2026-04-23 16:03 | 40.99394 | 39.78866 | 117 ft | 9 kts | 112° |
| 2026-04-23 16:03 | 40.99369 | 39.78947 | 115 ft | 12 kts | 112° |
| 2026-04-23 16:03 | 40.99334 | 39.79086 | 107 ft | 20 kts | 93° |
| 2026-04-23 16:04 | 40.99375 | 39.79255 | 110 ft | 19 kts | 52° |
| 2026-04-23 16:04 | 40.99415 | 39.79269 | 110 ft | 4 kts | 324° |
| 2026-04-23 16:04 | 40.99422 | 39.79251 | 111 ft | 0 kts | 294° |
| 2026-04-23 16:05 | 40.99427 | 39.79237 | 111 ft | 20 kts | 293° |
| 2026-04-23 16:05 | 40.99633 | 39.78584 | 109 ft | 128 kts | 293° |
| 2026-04-23 16:05 | 41.00034 | 39.77211 | 416 ft | 179 kts | 294° |
| 2026-04-23 16:06 | 41.00345 | 39.76151 | 1060 ft | 182 kts | 292° |
| 2026-04-23 16:06 | 41.00829 | 39.74530 | 2106 ft | 197 kts | 293° |
| 2026-04-23 16:06 | 41.01352 | 39.72852 | 3191 ft | 202 kts | 294° |
| 2026-04-23 16:06 | 41.01932 | 39.71128 | 4320 ft | 209 kts | 294° |
| 2026-04-23 16:07 | 41.02578 | 39.69255 | 5078 ft | 242 kts | 294° |
| 2026-04-23 16:07 | 41.03340 | 39.67127 | 6058 ft | 262 kts | 294° |
| 2026-04-23 16:07 | 41.04161 | 39.64940 | 7410 ft | 266 kts | 294° |
| 2026-04-23 16:07 | 41.05038 | 39.62789 | 8964 ft | 265 kts | 294° |
| 2026-04-23 16:08 | 41.05907 | 39.60634 | 10387 ft | 267 kts | 291° |
| 2026-04-23 16:08 | 41.06668 | 39.58345 | 11231 ft | 279 kts | 278° |
| 2026-04-23 16:08 | 41.06778 | 39.55652 | 11637 ft | 310 kts | 264° |
| 2026-04-23 16:08 | 41.06656 | 39.52728 | 12703 ft | 321 kts | 264° |
| 2026-04-23 16:09 | 41.06547 | 39.49814 | 14181 ft | 321 kts | 264° |
| 2026-04-23 16:09 | 41.06451 | 39.46836 | 15426 ft | 326 kts | 263° |
| 2026-04-23 16:09 | 41.06367 | 39.43807 | 16722 ft | 331 kts | 264° |
| 2026-04-23 16:09 | 41.06290 | 39.40731 | 17972 ft | 338 kts | 264° |
| 2026-04-23 16:10 | 41.06219 | 39.37594 | 19141 ft | 343 kts | 264° |
| 2026-04-23 16:10 | 41.06150 | 39.34425 | 20279 ft | 347 kts | 265° |
| 2026-04-23 16:10 | 41.06081 | 39.31205 | 21398 ft | 351 kts | 265° |
| 2026-04-23 16:10 | 41.06013 | 39.27947 | 22542 ft | 356 kts | 265° |
| 2026-04-23 16:11 | 41.05943 | 39.24645 | 23648 ft | 360 kts | 265° |
| 2026-04-23 16:11 | 41.05870 | 39.21307 | 24580 ft | 364 kts | 265° |
| 2026-04-23 16:11 | 41.05796 | 39.17942 | 25490 ft | 368 kts | 265° |
| 2026-04-23 16:11 | 41.05750 | 39.14528 | 26362 ft | 373 kts | 268° |
| 2026-04-23 16:12 | 41.05907 | 39.11110 | 27215 ft | 380 kts | 272° |
| 2026-04-23 16:12 | 41.06239 | 39.07611 | 28066 ft | 384 kts | 273° |
| 2026-04-23 16:12 | 41.06578 | 39.04084 | 28899 ft | 388 kts | 273° |
| 2026-04-23 16:12 | 41.06918 | 39.00506 | 29670 ft | 393 kts | 273° |
| 2026-04-23 16:13 | 41.07258 | 38.96892 | 30370 ft | 397 kts | 273° |
| 2026-04-23 16:13 | 41.07937 | 38.89566 | 31539 ft | 404 kts | 273° |
| 2026-04-23 16:13 | 41.08278 | 38.85844 | 32046 ft | 409 kts | 273° |
| 2026-04-23 16:14 | 41.08620 | 38.82099 | 32601 ft | 410 kts | 273° |
| 2026-04-23 16:14 | 41.08963 | 38.78349 | 33303 ft | 408 kts | 273° |
| 2026-04-23 16:14 | 41.09303 | 38.74621 | 34045 ft | 406 kts | 273° |
| 2026-04-23 16:14 | 41.09638 | 38.70910 | 34551 ft | 407 kts | 273° |
| 2026-04-23 16:15 | 41.09963 | 38.67166 | 34984 ft | 409 kts | 273° |
| 2026-04-23 16:15 | 41.10273 | 38.63415 | 35435 ft | 410 kts | 273° |
| 2026-04-23 16:15 | 41.10582 | 38.59649 | 35921 ft | 410 kts | 273° |
| 2026-04-23 16:15 | 41.10892 | 38.55934 | 36360 ft | 412 kts | 273° |
| 2026-04-23 16:16 | 41.11213 | 38.52144 | 36793 ft | 413 kts | 274° |
| 2026-04-23 16:16 | 41.11534 | 38.48360 | 37217 ft | 414 kts | 274° |
| 2026-04-23 16:16 | 41.11856 | 38.44552 | 37645 ft | 415 kts | 274° |
| 2026-04-23 16:16 | 41.12177 | 38.40723 | 38077 ft | 416 kts | 274° |
| 2026-04-23 16:17 | 41.12497 | 38.36903 | 38492 ft | 417 kts | 274° |
| 2026-04-23 16:17 | 41.12816 | 38.33070 | 38835 ft | 418 kts | 274° |
| 2026-04-23 16:17 | 41.13134 | 38.29218 | 39110 ft | 420 kts | 274° |
| 2026-04-23 16:17 | 41.13451 | 38.25364 | 39390 ft | 422 kts | 274° |
| 2026-04-23 16:18 | 41.13767 | 38.21482 | 39671 ft | 423 kts | 274° |
| 2026-04-23 16:18 | 41.14077 | 38.17631 | 39901 ft | 426 kts | 274° |
| 2026-04-23 16:18 | 41.14710 | 38.09739 | 39983 ft | 431 kts | 274° |
| 2026-04-23 16:19 | 41.15338 | 38.01885 | 39983 ft | 425 kts | 274° |
| 2026-04-23 16:19 | 41.15953 | 37.94111 | 39988 ft | 422 kts | 274° |
| 2026-04-23 16:20 | 41.16566 | 37.86370 | 39988 ft | 422 kts | 274° |
| 2026-04-23 16:20 | 41.17241 | 37.78631 | 39989 ft | 422 kts | 274° |
| 2026-04-23 16:21 | 41.17919 | 37.70912 | 39984 ft | 424 kts | 274° |
| 2026-04-23 16:21 | 41.18588 | 37.63121 | 39988 ft | 425 kts | 274° |
| 2026-04-23 16:22 | 41.19067 | 37.55280 | 39992 ft | 425 kts | 271° |
| 2026-04-23 16:22 | 41.19541 | 37.47422 | 39985 ft | 427 kts | 274° |
| 2026-04-23 16:23 | 41.20152 | 37.39564 | 39984 ft | 428 kts | 274° |
| 2026-04-23 16:23 | 41.20741 | 37.31677 | 39983 ft | 429 kts | 273° |
| 2026-04-23 16:24 | 41.21309 | 37.23785 | 39982 ft | 429 kts | 273° |
| 2026-04-23 16:24 | 41.21905 | 37.15930 | 39983 ft | 430 kts | 274° |
| 2026-04-23 16:25 | 41.22540 | 37.08013 | 39983 ft | 430 kts | 274° |
| 2026-04-23 16:25 | 41.23166 | 37.00109 | 39983 ft | 430 kts | 274° |
| 2026-04-23 16:26 | 41.23777 | 36.92252 | 39982 ft | 430 kts | 274° |
| 2026-04-23 16:26 | 41.24386 | 36.84328 | 39974 ft | 430 kts | 274° |
| 2026-04-23 16:27 | 41.24987 | 36.76438 | 39969 ft | 431 kts | 274° |
| 2026-04-23 16:27 | 41.25587 | 36.68488 | 39967 ft | 431 kts | 274° |
| 2026-04-23 16:28 | 41.26180 | 36.60555 | 39968 ft | 431 kts | 273° |
| 2026-04-23 16:28 | 41.26158 | 36.52664 | 39972 ft | 429 kts | 264° |
| 2026-04-23 16:29 | 41.25265 | 36.44817 | 39975 ft | 429 kts | 259° |
| 2026-04-23 16:29 | 41.24151 | 36.37031 | 39969 ft | 429 kts | 259° |
| 2026-04-23 16:30 | 41.23031 | 36.29224 | 39975 ft | 430 kts | 259° |
| 2026-04-23 16:30 | 41.21923 | 36.21421 | 39967 ft | 430 kts | 259° |
| 2026-04-23 16:31 | 41.20823 | 36.13645 | 39961 ft | 430 kts | 259° |
| 2026-04-23 16:31 | 41.19713 | 36.05828 | 39958 ft | 430 kts | 259° |
| 2026-04-23 16:32 | 41.18599 | 35.98022 | 39958 ft | 430 kts | 259° |
| 2026-04-23 16:32 | 41.17480 | 35.90221 | 39945 ft | 430 kts | 259° |
| 2026-04-23 16:33 | 41.16355 | 35.82421 | 39936 ft | 430 kts | 259° |
| 2026-04-23 16:33 | 41.15226 | 35.74630 | 39936 ft | 430 kts | 259° |
| 2026-04-23 16:34 | 41.14092 | 35.66842 | 39930 ft | 430 kts | 259° |
| 2026-04-23 16:34 | 41.12952 | 35.59058 | 39923 ft | 430 kts | 259° |
| 2026-04-23 16:35 | 41.11806 | 35.51268 | 39923 ft | 430 kts | 259° |
| 2026-04-23 16:35 | 41.10665 | 35.43548 | 39919 ft | 429 kts | 259° |
| 2026-04-23 16:36 | 41.09511 | 35.35783 | 39924 ft | 429 kts | 259° |
| 2026-04-23 16:36 | 41.08351 | 35.28007 | 39912 ft | 429 kts | 259° |
| 2026-04-23 16:37 | 41.07187 | 35.20247 | 39915 ft | 429 kts | 259° |
| 2026-04-23 16:37 | 41.06017 | 35.12491 | 39904 ft | 429 kts | 259° |
| 2026-04-23 16:38 | 41.04851 | 35.04791 | 39912 ft | 428 kts | 259° |
| 2026-04-23 16:38 | 41.03673 | 34.97053 | 39910 ft | 428 kts | 259° |
| 2026-04-23 16:39 | 41.02493 | 34.89327 | 39902 ft | 428 kts | 259° |
| 2026-04-23 16:39 | 41.01305 | 34.81594 | 39895 ft | 428 kts | 259° |
| 2026-04-23 16:40 | 41.00115 | 34.73879 | 39904 ft | 427 kts | 259° |
| 2026-04-23 16:40 | 40.98920 | 34.66174 | 39908 ft | 427 kts | 259° |
| 2026-04-23 16:41 | 40.97719 | 34.58465 | 39907 ft | 427 kts | 258° |
| 2026-04-23 16:41 | 40.96522 | 34.50816 | 39915 ft | 427 kts | 258° |
| 2026-04-23 16:42 | 40.95310 | 34.43109 | 39910 ft | 427 kts | 258° |
| 2026-04-23 16:42 | 40.94093 | 34.35404 | 39907 ft | 428 kts | 258° |
| 2026-04-23 16:43 | 40.92870 | 34.27695 | 39909 ft | 428 kts | 258° |
| 2026-04-23 16:43 | 40.91649 | 34.20032 | 39911 ft | 428 kts | 258° |
| 2026-04-23 16:44 | 40.90418 | 34.12346 | 39904 ft | 428 kts | 258° |
| 2026-04-23 16:44 | 40.89181 | 34.04656 | 39904 ft | 427 kts | 258° |
| 2026-04-23 16:45 | 40.87939 | 33.96970 | 39908 ft | 427 kts | 258° |
| 2026-04-23 16:45 | 40.86695 | 33.89301 | 39908 ft | 426 kts | 258° |
| 2026-04-23 16:46 | 40.85454 | 33.81690 | 39919 ft | 426 kts | 258° |
| 2026-04-23 16:46 | 40.84198 | 33.74017 | 39913 ft | 426 kts | 258° |
| 2026-04-23 16:47 | 40.82940 | 33.66370 | 39919 ft | 426 kts | 258° |
| 2026-04-23 16:47 | 40.81674 | 33.58706 | 39921 ft | 426 kts | 258° |
| 2026-04-23 16:48 | 40.80414 | 33.51109 | 39924 ft | 426 kts | 258° |
| 2026-04-23 16:48 | 40.79140 | 33.43462 | 39924 ft | 426 kts | 258° |
| 2026-04-23 16:49 | 40.77861 | 33.35819 | 39930 ft | 426 kts | 258° |
| 2026-04-23 16:49 | 40.76578 | 33.28182 | 39932 ft | 426 kts | 258° |
| 2026-04-23 16:50 | 40.75289 | 33.20549 | 39928 ft | 426 kts | 258° |
| 2026-04-23 16:50 | 40.73997 | 33.12925 | 39938 ft | 426 kts | 258° |
| 2026-04-23 16:51 | 40.72704 | 33.05326 | 39935 ft | 426 kts | 258° |
| 2026-04-23 16:51 | 40.71400 | 32.97692 | 39938 ft | 427 kts | 258° |
| 2026-04-23 16:52 | 40.70310 | 32.91344 | 39939 ft | 427 kts | 258° |
| 2026-04-23 16:52 | 40.68994 | 32.83714 | 39940 ft | 427 kts | 258° |
| 2026-04-23 16:53 | 40.67678 | 32.76107 | 39941 ft | 427 kts | 257° |
| 2026-04-23 16:53 | 40.66350 | 32.68464 | 39943 ft | 427 kts | 258° |
| 2026-04-23 16:54 | 40.65016 | 32.60819 | 39941 ft | 427 kts | 258° |
| 2026-04-23 16:54 | 40.63678 | 32.53180 | 39958 ft | 428 kts | 257° |
| 2026-04-23 16:55 | 40.62344 | 32.45596 | 39953 ft | 428 kts | 258° |
| 2026-04-23 16:55 | 40.60997 | 32.37972 | 39959 ft | 428 kts | 257° |
| 2026-04-23 16:56 | 40.59641 | 32.30330 | 39966 ft | 428 kts | 257° |
| 2026-04-23 16:56 | 40.58283 | 32.22703 | 39964 ft | 428 kts | 257° |
| 2026-04-23 16:57 | 40.56919 | 32.15072 | 39962 ft | 428 kts | 257° |
| 2026-04-23 16:57 | 40.55558 | 32.07494 | 39964 ft | 428 kts | 257° |
| 2026-04-23 16:58 | 40.54184 | 31.99874 | 39963 ft | 428 kts | 257° |
| 2026-04-23 16:58 | 40.52807 | 31.92269 | 39957 ft | 427 kts | 257° |
| 2026-04-23 16:59 | 40.51431 | 31.84699 | 39967 ft | 427 kts | 257° |
| 2026-04-23 16:59 | 40.50046 | 31.77109 | 39945 ft | 418 kts | 257° |
| 2026-04-23 17:00 | 40.49371 | 31.73428 | 39565 ft | 413 kts | 257° |
| 2026-04-23 17:00 | 40.48705 | 31.69800 | 39044 ft | 411 kts | 257° |
| 2026-04-23 17:00 | 40.48028 | 31.66112 | 38329 ft | 413 kts | 257° |
| 2026-04-23 17:00 | 40.47354 | 31.62449 | 37499 ft | 412 kts | 258° |
| 2026-04-23 17:01 | 40.46691 | 31.58851 | 36877 ft | 409 kts | 258° |
| 2026-04-23 17:01 | 40.46023 | 31.55242 | 36328 ft | 403 kts | 258° |
| 2026-04-23 17:01 | 40.45366 | 31.51693 | 35789 ft | 398 kts | 258° |
| 2026-04-23 17:01 | 40.44714 | 31.48182 | 35230 ft | 393 kts | 258° |
| 2026-04-23 17:02 | 40.44071 | 31.44719 | 34713 ft | 388 kts | 258° |
| 2026-04-23 17:02 | 40.43433 | 31.41295 | 34192 ft | 383 kts | 258° |
| 2026-04-23 17:02 | 40.42806 | 31.37929 | 33645 ft | 378 kts | 258° |
| 2026-04-23 17:02 | 40.42185 | 31.34605 | 33075 ft | 372 kts | 258° |
| 2026-04-23 17:03 | 40.41571 | 31.31325 | 32549 ft | 367 kts | 258° |
| 2026-04-23 17:03 | 40.40965 | 31.28089 | 32054 ft | 362 kts | 258° |
| 2026-04-23 17:03 | 40.40368 | 31.24910 | 31536 ft | 358 kts | 258° |
| 2026-04-23 17:03 | 40.39771 | 31.21732 | 31062 ft | 354 kts | 258° |
| 2026-04-23 17:04 | 40.39191 | 31.18653 | 30573 ft | 351 kts | 258° |
| 2026-04-23 17:04 | 40.38610 | 31.15568 | 30109 ft | 347 kts | 258° |
| 2026-04-23 17:04 | 40.38032 | 31.12507 | 29565 ft | 343 kts | 258° |
| 2026-04-23 17:04 | 40.37458 | 31.09480 | 29054 ft | 339 kts | 258° |
| 2026-04-23 17:05 | 40.36961 | 31.06482 | 28536 ft | 335 kts | 263° |
| 2026-04-23 17:05 | 40.36808 | 31.03435 | 28003 ft | 337 kts | 269° |
| 2026-04-23 17:05 | 40.36855 | 31.00352 | 27594 ft | 338 kts | 272° |
| 2026-04-23 17:05 | 40.37103 | 30.97292 | 27314 ft | 337 kts | 277° |
| 2026-04-23 17:06 | 40.37477 | 30.94263 | 27030 ft | 334 kts | 278° |
| 2026-04-23 17:06 | 40.37879 | 30.91273 | 26738 ft | 333 kts | 278° |
| 2026-04-23 17:06 | 40.38286 | 30.88286 | 26415 ft | 332 kts | 278° |
| 2026-04-23 17:06 | 40.38689 | 30.85311 | 26099 ft | 331 kts | 278° |
| 2026-04-23 17:07 | 40.39087 | 30.82333 | 25799 ft | 330 kts | 278° |
| 2026-04-23 17:07 | 40.39479 | 30.79367 | 25535 ft | 329 kts | 278° |
| 2026-04-23 17:07 | 40.39861 | 30.76451 | 25256 ft | 328 kts | 278° |
| 2026-04-23 17:07 | 40.40243 | 30.73509 | 24970 ft | 327 kts | 278° |
| 2026-04-23 17:08 | 40.40622 | 30.70573 | 24698 ft | 326 kts | 278° |
| 2026-04-23 17:08 | 40.40999 | 30.67646 | 24431 ft | 325 kts | 278° |
| 2026-04-23 17:08 | 40.41375 | 30.64723 | 24159 ft | 324 kts | 278° |
| 2026-04-23 17:08 | 40.41748 | 30.61810 | 23903 ft | 323 kts | 278° |
| 2026-04-23 17:09 | 40.42119 | 30.58898 | 23646 ft | 322 kts | 278° |
| 2026-04-23 17:09 | 40.42487 | 30.56006 | 23351 ft | 322 kts | 278° |
| 2026-04-23 17:09 | 40.42855 | 30.53116 | 23018 ft | 321 kts | 278° |
| 2026-04-23 17:09 | 40.43222 | 30.50226 | 22698 ft | 321 kts | 278° |
| 2026-04-23 17:10 | 40.43586 | 30.47345 | 22409 ft | 320 kts | 277° |
| 2026-04-23 17:10 | 40.43946 | 30.44501 | 22119 ft | 319 kts | 277° |
| 2026-04-23 17:10 | 40.44308 | 30.41632 | 21856 ft | 319 kts | 277° |
| 2026-04-23 17:10 | 40.44669 | 30.38758 | 21565 ft | 318 kts | 277° |
| 2026-04-23 17:11 | 40.45028 | 30.35894 | 21275 ft | 318 kts | 277° |
| 2026-04-23 17:11 | 40.45432 | 30.33049 | 20969 ft | 316 kts | 283° |
| 2026-04-23 17:11 | 40.46396 | 30.30404 | 20607 ft | 327 kts | 299° |
| 2026-04-23 17:11 | 40.47847 | 30.28074 | 20315 ft | 333 kts | 309° |
| 2026-04-23 17:12 | 40.49608 | 30.26077 | 20077 ft | 335 kts | 315° |
| 2026-04-23 17:12 | 40.51445 | 30.24184 | 19835 ft | 335 kts | 316° |
| 2026-04-23 17:12 | 40.53279 | 30.22287 | 19586 ft | 333 kts | 312° |
| 2026-04-23 17:12 | 40.54883 | 30.20129 | 19341 ft | 328 kts | 305° |
| 2026-04-23 17:13 | 40.56272 | 30.17779 | 19092 ft | 324 kts | 300° |
| 2026-04-23 17:13 | 40.57546 | 30.15329 | 18852 ft | 324 kts | 298° |
| 2026-04-23 17:13 | 40.58799 | 30.12858 | 18606 ft | 324 kts | 298° |
| 2026-04-23 17:13 | 40.60046 | 30.10391 | 18390 ft | 324 kts | 298° |
| 2026-04-23 17:14 | 40.61294 | 30.07920 | 18191 ft | 324 kts | 298° |
| 2026-04-23 17:14 | 40.62524 | 30.05488 | 17995 ft | 322 kts | 298° |
| 2026-04-23 17:14 | 40.63767 | 30.03035 | 17815 ft | 321 kts | 299° |
| 2026-04-23 17:14 | 40.65007 | 30.00593 | 17623 ft | 320 kts | 299° |
| 2026-04-23 17:15 | 40.66243 | 29.98159 | 17406 ft | 319 kts | 299° |
| 2026-04-23 17:15 | 40.67474 | 29.95734 | 17202 ft | 317 kts | 299° |
| 2026-04-23 17:15 | 40.68697 | 29.93323 | 16925 ft | 316 kts | 299° |
| 2026-04-23 17:15 | 40.69917 | 29.90917 | 16493 ft | 315 kts | 300° |
| 2026-04-23 17:16 | 40.71132 | 29.88522 | 16053 ft | 312 kts | 300° |
| 2026-04-23 17:16 | 40.72331 | 29.86155 | 15617 ft | 310 kts | 300° |
| 2026-04-23 17:16 | 40.73527 | 29.83792 | 15180 ft | 307 kts | 300° |
| 2026-04-23 17:16 | 40.74709 | 29.81455 | 14766 ft | 305 kts | 300° |
| 2026-04-23 17:17 | 40.75865 | 29.79168 | 14365 ft | 303 kts | 301° |
| 2026-04-23 17:17 | 40.77026 | 29.76868 | 13938 ft | 301 kts | 301° |
| 2026-04-23 17:17 | 40.77810 | 29.75315 | 13638 ft | 299 kts | 301° |
| 2026-04-23 17:17 | 40.79334 | 29.72294 | 13040 ft | 297 kts | 301° |
| 2026-04-23 17:18 | 40.81596 | 29.67802 | 12201 ft | 292 kts | 301° |
| 2026-04-23 17:18 | 40.82721 | 29.65566 | 11805 ft | 290 kts | 302° |
| 2026-04-23 17:18 | 40.83835 | 29.63351 | 11407 ft | 289 kts | 302° |
| 2026-04-23 17:19 | 40.84946 | 29.61139 | 11000 ft | 288 kts | 302° |
| 2026-04-23 17:19 | 40.86049 | 29.58942 | 10608 ft | 287 kts | 302° |
| 2026-04-23 17:19 | 40.87148 | 29.56751 | 10343 ft | 282 kts | 302° |
| 2026-04-23 17:19 | 40.88197 | 29.54662 | 10199 ft | 272 kts | 302° |
| 2026-04-23 17:20 | 40.89228 | 29.52607 | 10086 ft | 263 kts | 302° |
| 2026-04-23 17:20 | 40.91211 | 29.48644 | 9556 ft | 256 kts | 302° |
| 2026-04-23 17:21 | 40.93168 | 29.44729 | 8932 ft | 254 kts | 303° |
| 2026-04-23 17:21 | 40.94138 | 29.42786 | 8627 ft | 252 kts | 303° |
| 2026-04-23 17:21 | 40.96066 | 29.38922 | 8008 ft | 251 kts | 303° |
| 2026-04-23 17:22 | 40.97025 | 29.36997 | 7689 ft | 250 kts | 304° |
| 2026-04-23 17:22 | 40.98932 | 29.33168 | 7111 ft | 249 kts | 304° |
| 2026-04-23 17:23 | 41.00824 | 29.29365 | 6513 ft | 248 kts | 304° |
| 2026-04-23 17:23 | 41.01768 | 29.27466 | 6208 ft | 247 kts | 305° |
| 2026-04-23 17:23 | 41.03669 | 29.23639 | 5587 ft | 251 kts | 305° |
| 2026-04-23 17:24 | 41.04634 | 29.21692 | 5284 ft | 255 kts | 305° |
| 2026-04-23 17:24 | 41.05611 | 29.19724 | 5077 ft | 253 kts | 304° |
| 2026-04-23 17:24 | 41.07258 | 29.16396 | 4996 ft | 229 kts | 305° |
| 2026-04-23 17:25 | 41.08941 | 29.12993 | 4692 ft | 217 kts | 305° |
| 2026-04-23 17:25 | 41.09672 | 29.11283 | 4515 ft | 211 kts | 288° |
| 2026-04-23 17:26 | 41.08898 | 29.07693 | 4118 ft | 213 kts | 239° |
| 2026-04-23 17:26 | 41.07319 | 29.04283 | 3655 ft | 220 kts | 239° |
| 2026-04-23 17:27 | 41.05731 | 29.00860 | 3212 ft | 212 kts | 238° |
| 2026-04-23 17:27 | 41.04976 | 28.99222 | 3018 ft | 201 kts | 238° |
| 2026-04-23 17:27 | 41.04259 | 28.97665 | 2739 ft | 200 kts | 238° |
| 2026-04-23 17:27 | 41.03544 | 28.96112 | 2461 ft | 194 kts | 237° |
| 2026-04-23 17:28 | 41.02861 | 28.94631 | 2164 ft | 182 kts | 237° |
| 2026-04-23 17:28 | 41.02230 | 28.93264 | 1897 ft | 163 kts | 237° |
| 2026-04-23 17:28 | 41.01680 | 28.92070 | 1669 ft | 142 kts | 237° |
| 2026-04-23 17:28 | 41.01191 | 28.91011 | 1467 ft | 133 kts | 237° |
| 2026-04-23 17:29 | 41.00709 | 28.89965 | 1291 ft | 132 kts | 237° |
| 2026-04-23 17:29 | 41.00228 | 28.88924 | 1092 ft | 132 kts | 238° |
| 2026-04-23 17:29 | 40.99298 | 28.86910 | 732 ft | 121 kts | 239° |
| 2026-04-23 17:30 | 40.99009 | 28.86281 | 628 ft | 121 kts | 239° |
| 2026-04-23 17:30 | 40.97988 | 28.84070 | 239 ft | 122 kts | 240° |
| 2026-04-23 17:30 | 40.97535 | 28.83103 | 112 ft | 122 kts | 240° |
| 2026-04-23 17:31 | 40.97143 | 28.82248 | 110 ft | 89 kts | 238° |
| 2026-04-23 17:31 | 40.96999 | 28.81851 | 110 ft | 22 kts | 258° |
| 2026-04-23 17:31 | 40.96989 | 28.81677 | 108 ft | 10 kts | 270° |
| 2026-04-23 17:31 | 40.96989 | 28.81648 | 109 ft | 0 kts | 270° |
| 2026-04-23 17:33 | 40.96989 | 28.81633 | 110 ft | 10 kts | 270° |
| 2026-04-23 17:33 | 40.97011 | 28.81478 | 109 ft | 19 kts | 308° |
| 2026-04-23 17:33 | 40.97077 | 28.81447 | 112 ft | 9 kts | 352° |
| 2026-04-23 17:33 | 40.97146 | 28.81441 | 112 ft | 11 kts | 358° |
| 2026-04-23 17:34 | 40.97228 | 28.81438 | 116 ft | 12 kts | 359° |
| 2026-04-23 17:34 | 40.97317 | 28.81438 | 116 ft | 14 kts | 360° |
| 2026-04-23 17:34 | 40.97491 | 28.81512 | 121 ft | 15 kts | 70° |
| 2026-04-23 17:35 | 40.97512 | 28.81652 | 122 ft | 17 kts | 79° |
| 2026-04-23 17:35 | 40.97506 | 28.81789 | 118 ft | 7 kts | 169° |
| 2026-04-23 17:35 | 40.97443 | 28.81805 | 120 ft | 0 kts | 169° |